createdAt,value
2023-05-09T03:06:10.171Z,100.00
2023-05-09T03:09:21.203Z,100.00
2023-05-09T03:12:32.102Z,100.00
2023-05-09T03:15:43.017Z,100.00
2023-05-09T03:18:56.304Z,100.00
2023-05-09T03:22:08.426Z,100.00
2023-05-09T03:25:26.511Z,100.00
2023-05-09T03:28:37.842Z,100.00
2023-05-09T03:31:49.974Z,100.00
2023-05-09T03:35:00.743Z,100.00
2023-05-09T03:38:13.310Z,100.00
2023-05-09T03:41:24.663Z,100.00
2023-05-09T03:44:36.297Z,100.00
2023-05-09T03:47:47.517Z,100.00
2023-05-09T03:50:59.057Z,100.00
2023-05-09T03:54:13.670Z,100.00
2023-05-09T03:57:24.659Z,100.00
2023-05-09T04:00:39.332Z,100.00
2023-05-09T04:03:55.158Z,100.00
2023-05-09T04:07:06.169Z,100.00
2023-05-09T04:10:18.382Z,100.00
2023-05-09T04:13:31.385Z,100.00
2023-05-09T04:16:44.938Z,100.00
2023-05-09T04:19:56.406Z,100.00
2023-05-09T04:23:07.318Z,100.00
2023-05-09T04:26:19.599Z,100.00
2023-05-09T04:29:32.943Z,100.00
2023-05-09T04:32:46.265Z,100.00
2023-05-09T04:35:57.932Z,100.00
2023-05-09T04:39:10.481Z,100.00
2023-05-09T04:42:25.394Z,100.00
2023-05-09T04:45:36.176Z,100.00
2023-05-09T04:48:47.079Z,100.00
2023-05-09T04:51:57.997Z,100.00
2023-05-09T04:55:09.808Z,100.00
2023-05-09T04:58:26.775Z,100.00
2023-05-09T05:01:40.083Z,100.00
2023-05-09T05:47:49.599Z,100.00
2023-05-09T05:51:01.801Z,100.00
2023-05-09T05:54:20.920Z,100.00
2023-05-09T05:57:32.002Z,100.00
2023-05-09T06:00:43.251Z,100.00
2023-05-09T06:03:56.258Z,100.00
2023-05-09T06:07:11.075Z,100.00
2023-05-09T06:10:22.363Z,100.00
2023-05-09T06:13:33.182Z,100.00
2023-05-09T06:16:49.041Z,100.00
2023-05-09T06:20:01.150Z,100.00
2023-05-09T06:23:12.465Z,100.00
2023-05-09T06:26:24.480Z,100.00
2023-05-09T06:29:36.396Z,100.00
2023-05-09T06:32:47.438Z,100.00
2023-05-09T06:36:00.750Z,100.00
2023-05-09T06:39:12.823Z,100.00
2023-05-09T06:42:23.525Z,100.00
2023-05-09T06:45:34.525Z,100.00
2023-05-09T06:48:46.152Z,100.00
2023-05-09T06:51:58.999Z,100.00
2023-05-09T06:55:11.669Z,100.00
2023-05-09T06:58:23.523Z,100.00
2023-05-09T07:01:34.729Z,100.00
2023-05-09T07:04:45.848Z,100.00
2023-05-09T07:07:58.250Z,100.00
2023-05-09T07:11:08.822Z,100.00
2023-05-09T07:14:20.684Z,100.00
2023-05-09T07:17:31.559Z,100.00
2023-05-09T07:20:42.417Z,100.00
2023-05-09T07:23:54.535Z,100.00
2023-05-09T07:27:06.038Z,100.00
2023-05-09T07:30:17.190Z,100.00
2023-05-09T07:33:28.064Z,100.00
2023-05-09T07:39:52.112Z,100.00
2023-05-09T07:43:02.905Z,100.00
2023-05-09T07:46:13.863Z,100.00
2023-05-09T07:49:24.853Z,100.00
2023-05-09T07:52:35.737Z,100.00
2023-05-09T07:55:50.071Z,100.00
2023-05-09T07:59:00.943Z,100.00
2023-05-09T08:02:11.881Z,100.00
2023-05-09T08:05:22.714Z,100.00
2023-05-09T08:08:33.534Z,100.00
2023-05-09T08:11:45.998Z,100.00
2023-05-09T08:14:56.703Z,100.00
2023-05-09T08:18:07.928Z,100.00
2023-05-09T08:21:20.853Z,100.00
2023-05-09T08:24:33.732Z,100.00
2023-05-09T08:27:46.451Z,100.00
2023-05-09T08:30:58.698Z,100.00
2023-05-09T08:34:11.359Z,100.00
2023-05-09T08:37:22.753Z,100.00
2023-05-09T08:40:38.276Z,100.00
2023-05-09T08:43:51.419Z,100.00
2023-05-09T08:47:03.661Z,100.00
2023-05-09T08:50:15.988Z,100.00
2023-05-09T08:53:27.181Z,100.00
2023-05-09T08:56:39.575Z,100.00
2023-05-09T08:59:53.802Z,100.00
2023-05-09T09:03:05.161Z,100.00
2023-05-09T09:06:17.354Z,100.00
2023-05-09T09:09:29.625Z,94.41
2023-05-09T09:12:41.987Z,94.69
2023-05-09T09:15:56.099Z,93.54
2023-05-09T09:19:10.181Z,90.51
2023-05-09T09:22:21.650Z,87.17
2023-05-09T09:25:32.296Z,86.41
2023-05-09T09:28:44.603Z,86.62
2023-05-09T09:31:57.274Z,86.52
2023-05-09T09:35:09.401Z,83.53
2023-05-09T09:38:21.322Z,81.51
2023-05-09T09:41:33.911Z,82.34
2023-05-09T09:44:44.441Z,80.80
2023-05-09T09:47:56.435Z,81.51
2023-05-09T09:51:11.949Z,81.85
2023-05-09T09:54:23.336Z,78.89
2023-05-09T09:57:36.481Z,78.10
2023-05-09T10:00:47.490Z,77.95
2023-05-09T10:03:59.473Z,77.11
2023-05-09T10:07:15.159Z,75.78
2023-05-09T10:10:28.779Z,80.84
2023-05-09T10:13:39.755Z,80.91
2023-05-09T10:16:51.806Z,82.61
2023-05-09T10:20:06.873Z,84.34
2023-05-09T10:23:19.995Z,87.04
2023-05-09T10:26:37.830Z,88.76
2023-05-09T10:29:53.437Z,90.73
2023-05-09T10:33:05.764Z,92.67
2023-05-09T10:36:20.893Z,96.19
2023-05-09T10:39:32.684Z,99.10
2023-05-09T10:42:44.368Z,99.94
2023-05-09T10:45:56.193Z,100.00
2023-05-09T10:49:08.000Z,100.00
2023-05-09T10:52:22.814Z,96.81
2023-05-09T10:55:38.938Z,94.14
2023-05-09T10:58:49.801Z,91.32
2023-05-09T11:02:03.199Z,90.70
2023-05-09T11:05:16.184Z,91.76
2023-05-09T11:08:30.111Z,92.42
2023-05-09T11:11:53.680Z,96.79
2023-05-09T11:15:09.298Z,98.40
2023-05-09T11:18:20.478Z,99.38
2023-05-09T11:21:31.267Z,100.00
2023-05-09T11:24:47.824Z,100.00
2023-05-09T11:28:02.318Z,100.00
2023-05-09T11:31:15.105Z,100.00
2023-05-09T11:34:26.098Z,100.00
2023-05-09T11:37:45.576Z,100.00
2023-05-09T11:40:58.163Z,100.00
2023-05-09T11:44:16.113Z,100.00
2023-05-09T11:47:29.042Z,100.00
2023-05-09T11:50:41.554Z,100.00
2023-05-09T11:53:54.377Z,100.00
2023-05-09T11:57:07.232Z,100.00
2023-05-09T12:00:19.392Z,100.00
2023-05-09T12:03:31.153Z,100.00
2023-05-09T12:06:43.288Z,100.00
2023-05-09T12:09:55.120Z,100.00
2023-05-09T12:13:07.549Z,100.00
2023-05-09T12:16:19.327Z,99.67
2023-05-09T12:19:30.549Z,97.98
2023-05-09T12:22:44.895Z,97.72
2023-05-09T12:25:57.504Z,100.00
2023-05-09T12:29:15.968Z,100.00
2023-05-09T12:32:31.818Z,100.00
2023-05-09T12:35:47.050Z,100.00
2023-05-09T12:38:58.781Z,100.00
2023-05-09T12:42:14.281Z,100.00
2023-05-09T12:45:26.561Z,100.00
2023-05-09T12:48:40.217Z,100.00
2023-05-09T12:51:51.415Z,100.00
2023-05-09T12:55:08.012Z,100.00
2023-05-09T12:58:20.645Z,100.00
2023-05-09T13:01:32.604Z,100.00
2023-05-09T13:04:43.387Z,100.00
2023-05-09T13:07:58.405Z,100.00
2023-05-09T13:11:16.657Z,100.00
2023-05-09T13:14:28.840Z,100.00
2023-05-09T13:17:40.920Z,100.00
2023-05-09T13:20:52.698Z,100.00
2023-05-09T13:24:03.170Z,100.00
2023-05-09T13:27:14.094Z,100.00
2023-05-09T13:30:25.116Z,100.00
2023-05-09T13:33:37.592Z,100.00
2023-05-09T13:36:48.449Z,100.00
2023-05-09T13:39:59.609Z,100.00
2023-05-09T13:43:10.502Z,100.00
2023-05-09T13:46:21.733Z,100.00
2023-05-09T13:49:33.763Z,100.00
2023-05-09T13:52:46.125Z,100.00
2023-05-09T13:55:57.884Z,100.00
2023-05-09T13:59:08.678Z,100.00
2023-05-09T14:02:18.990Z,100.00
2023-05-09T14:05:32.960Z,100.00
2023-05-09T14:08:43.614Z,100.00
2023-05-09T14:11:55.450Z,100.00
2023-05-09T14:15:06.849Z,100.00
2023-05-09T14:18:20.812Z,100.00
2023-05-09T14:21:33.517Z,100.00
2023-05-09T14:24:43.872Z,100.00
2023-05-09T14:27:55.554Z,100.00
2023-05-09T14:31:07.175Z,100.00
2023-05-09T14:34:18.100Z,100.00
2023-05-09T14:37:30.772Z,100.00
2023-05-09T14:40:41.571Z,100.00
2023-05-09T14:43:53.527Z,100.00
2023-05-09T14:47:04.504Z,100.00
2023-05-09T14:50:16.442Z,100.00
2023-05-09T14:53:30.000Z,100.00
2023-05-09T14:56:41.376Z,100.00
2023-05-09T14:59:52.806Z,100.00
2023-05-09T15:03:03.814Z,100.00
2023-05-09T15:06:15.521Z,100.00
2023-05-09T15:09:28.242Z,100.00
2023-05-09T15:12:38.971Z,100.00
2023-05-09T15:15:49.776Z,100.00
2023-05-09T15:19:00.485Z,100.00
2023-05-09T15:22:11.499Z,100.00
2023-05-09T15:25:23.837Z,100.00
2023-05-09T15:28:35.844Z,100.00
2023-05-09T15:31:46.608Z,100.00
2023-05-09T15:34:57.503Z,100.00
2023-05-09T15:38:12.207Z,100.00
2023-05-09T15:41:24.671Z,100.00
2023-05-09T15:44:36.078Z,100.00
2023-05-09T15:47:46.917Z,100.00
2023-05-09T15:50:57.935Z,100.00
2023-05-09T15:54:08.862Z,100.00
2023-05-09T15:57:21.246Z,100.00
2023-05-09T16:00:32.533Z,100.00
2023-05-09T16:03:43.445Z,100.00
2023-05-09T16:06:55.566Z,100.00
2023-05-09T16:10:07.337Z,100.00
2023-05-09T16:13:19.369Z,100.00
2023-05-09T16:16:30.297Z,100.00
2023-05-09T16:19:41.221Z,100.00
2023-05-09T16:22:52.321Z,100.00
2023-05-09T16:26:03.204Z,100.00
2023-05-09T16:29:15.336Z,100.00
2023-05-09T16:32:26.272Z,100.00
2023-05-09T16:35:37.505Z,100.00
2023-05-09T16:38:48.968Z,100.00
2023-05-09T16:42:00.498Z,100.00
2023-05-09T16:45:12.713Z,100.00
2023-05-09T16:48:24.597Z,100.00
2023-05-09T16:51:36.039Z,100.00
2023-05-09T16:54:47.120Z,100.00
2023-05-09T16:57:58.562Z,100.00
2023-05-09T17:01:11.670Z,100.00
2023-05-09T17:04:22.360Z,100.00
2023-05-09T17:07:33.322Z,100.00
2023-05-09T17:10:44.537Z,100.00
2023-05-09T17:13:55.480Z,100.00
2023-05-09T17:17:08.043Z,100.00
2023-05-09T17:20:19.489Z,100.00
2023-05-09T17:23:30.720Z,100.00
2023-05-09T17:26:42.301Z,100.00
2023-05-09T17:29:53.569Z,100.00
2023-05-09T17:33:05.660Z,100.00
2023-05-09T17:36:16.492Z,100.00
2023-05-09T17:39:27.428Z,100.00
2023-05-09T17:42:38.767Z,100.00
2023-05-09T17:45:50.108Z,100.00
2023-05-09T17:49:02.695Z,100.00
2023-05-09T17:52:13.773Z,100.00
2023-05-09T17:55:24.697Z,100.00
2023-05-09T17:58:35.656Z,100.00
2023-05-09T18:01:46.664Z,100.00
2023-05-09T18:04:58.980Z,100.00
2023-05-09T18:08:09.617Z,100.00
2023-05-09T18:11:20.961Z,100.00
2023-05-09T18:14:31.796Z,100.00
2023-05-09T18:17:43.061Z,100.00
2023-05-09T18:20:55.174Z,100.00
2023-05-09T18:24:06.386Z,100.00
2023-05-09T18:27:17.319Z,100.00
2023-05-09T18:30:28.845Z,100.00
2023-05-09T18:33:40.305Z,100.00
2023-05-09T18:36:52.717Z,100.00
2023-05-09T18:40:03.559Z,100.00
2023-05-09T18:43:14.367Z,100.00
2023-05-09T18:46:28.006Z,100.00
2023-05-09T18:49:39.020Z,100.00
2023-05-09T18:52:51.200Z,100.00
2023-05-09T18:56:02.302Z,100.00
2023-05-09T18:59:16.433Z,100.00
2023-05-09T19:02:28.242Z,100.00
2023-05-09T19:05:40.578Z,100.00
2023-05-09T19:08:54.539Z,100.00
2023-05-09T19:12:07.138Z,100.00
2023-05-09T19:15:21.210Z,100.00
2023-05-09T19:18:34.063Z,100.00
2023-05-09T19:21:47.996Z,100.00
2023-05-09T19:25:02.827Z,100.00
2023-05-09T19:28:15.397Z,100.00
2023-05-09T19:31:30.646Z,100.00
2023-05-09T19:34:43.307Z,100.00
2023-05-09T19:37:57.963Z,100.00
2023-05-09T19:41:13.398Z,100.00
2023-05-09T19:44:26.844Z,100.00
2023-05-09T19:47:39.586Z,100.00
2023-05-09T19:50:52.775Z,100.00
2023-05-09T19:54:05.543Z,100.00
2023-05-09T19:57:19.946Z,100.00
2023-05-09T20:00:33.237Z,100.00
2023-05-09T20:03:47.099Z,100.00
2023-05-09T20:06:59.533Z,100.00
2023-05-09T20:10:13.489Z,100.00
2023-05-09T20:13:27.414Z,100.00
